createdAt,value
2023-04-28T00:01:12.365Z,100844.47
2023-04-28T00:03:39.004Z,100835.16
2023-04-28T00:06:06.020Z,100833.81
2023-04-28T00:08:32.887Z,100839.00
2023-04-28T00:10:59.535Z,100837.34
2023-04-28T00:13:26.482Z,100828.59
2023-04-28T00:15:53.377Z,100826.44
2023-04-28T00:18:20.840Z,100816.03
2023-04-28T00:20:47.394Z,100810.00
2023-04-28T00:23:13.827Z,100813.56
2023-04-28T00:25:40.192Z,100804.03
2023-04-28T00:28:06.656Z,100799.38
2023-04-28T00:30:33.007Z,100800.75
2023-04-28T00:32:59.390Z,100795.56
2023-04-28T00:35:25.946Z,100798.28
2023-04-28T00:37:52.319Z,100789.81
2023-04-28T00:40:18.880Z,100791.97
2023-04-28T00:42:45.314Z,100781.63
2023-04-28T00:45:11.897Z,100774.75
2023-04-28T00:47:38.262Z,100775.56
2023-04-28T00:50:08.179Z,100772.59
2023-04-28T00:52:34.635Z,100765.22
2023-04-28T00:55:01.051Z,100774.47
2023-04-28T00:57:27.491Z,100772.28
2023-04-28T00:59:53.945Z,100763.03
2023-04-28T01:02:20.473Z,100764.09
2023-04-28T01:04:47.402Z,100768.19
2023-04-28T01:07:14.388Z,100754.84
2023-04-28T01:09:40.868Z,100764.94
2023-04-28T01:12:08.464Z,100759.50
2023-04-28T01:14:35.206Z,100760.34
2023-04-28T01:17:01.916Z,100756.50
2023-04-28T01:19:29.726Z,100764.94
2023-04-28T01:21:56.071Z,100766.84
2023-04-28T01:24:22.667Z,100769.53
2023-04-28T01:26:48.976Z,100762.16
2023-04-28T01:29:15.277Z,100756.09
2023-04-28T01:31:41.845Z,100757.72
2023-04-28T01:34:08.366Z,100748.19
2023-04-28T01:36:37.283Z,100756.59
2023-04-28T01:39:05.421Z,100750.31
2023-04-28T01:41:34.303Z,100748.06
2023-04-28T01:44:00.795Z,100754.88
2023-04-28T01:46:27.678Z,100756.19
2023-04-28T01:48:54.115Z,100758.09
2023-04-28T01:51:20.731Z,100755.56
2023-04-28T01:53:47.144Z,100747.91
2023-04-28T01:56:13.477Z,100751.66
2023-04-28T01:58:39.877Z,100745.66
2023-04-28T02:01:06.696Z,100740.72
2023-04-28T02:03:33.368Z,100740.22
2023-04-28T02:05:59.848Z,100753.28
2023-04-28T02:08:26.358Z,100759.78
2023-04-28T02:10:52.665Z,100760.06
2023-04-28T02:13:19.041Z,100762.19
2023-04-28T02:15:45.510Z,100756.19
2023-04-28T02:18:11.958Z,100753.47
2023-04-28T02:20:38.559Z,100751.00
2023-04-28T02:23:04.908Z,100759.66
2023-04-28T02:25:31.437Z,100747.91
2023-04-28T02:27:57.807Z,100754.47
2023-04-28T02:30:24.149Z,100761.25
2023-04-28T02:32:50.752Z,100760.16
2023-04-28T02:35:17.241Z,100756.38
2023-04-28T02:37:43.573Z,100751.69
2023-04-28T02:40:10.571Z,100749.75
2023-04-28T02:42:37.006Z,100747.03
2023-04-28T02:45:03.603Z,100741.44
2023-04-28T02:47:29.958Z,100741.66
2023-04-28T02:49:56.291Z,100739.19
2023-04-28T02:52:23.022Z,100739.84
2023-04-28T02:54:54.259Z,100741.97
2023-04-28T02:57:20.726Z,100729.47
2023-04-28T02:59:47.193Z,100728.69
2023-04-28T03:02:13.679Z,100714.75
2023-04-28T03:04:40.080Z,100722.84
2023-04-28T03:07:06.657Z,100715.25
2023-04-28T03:09:33.234Z,100712.56
2023-04-28T03:11:59.724Z,100723.47
2023-04-28T03:14:26.082Z,100714.19
2023-04-28T03:16:52.545Z,100712.56
2023-04-28T03:19:18.854Z,100716.63
2023-04-28T03:21:46.091Z,100706.81
2023-04-28T03:24:12.464Z,100703.72
2023-04-28T03:26:38.861Z,100701.53
2023-04-28T03:29:05.243Z,100692.75
2023-04-28T03:31:31.778Z,100691.28
2023-04-28T03:33:59.551Z,100694.19
2023-04-28T03:36:27.395Z,100696.97
2023-04-28T03:38:54.579Z,100705.19
2023-04-28T03:41:20.945Z,100700.59
2023-04-28T03:43:47.257Z,100699.75
2023-04-28T03:46:13.700Z,100695.44
2023-04-28T03:48:40.072Z,100690.56
2023-04-28T03:51:06.421Z,100683.53
2023-04-28T03:53:32.834Z,100684.84
2023-04-28T03:55:59.224Z,100679.69
2023-04-28T03:58:25.666Z,100667.44
2023-04-28T04:00:52.212Z,100661.56
2023-04-28T04:03:21.658Z,100658.63
2023-04-28T04:05:48.464Z,100653.72
2023-04-28T04:08:14.952Z,100650.34
2023-04-28T04:10:41.272Z,100636.69
2023-04-28T04:13:07.806Z,100618.28
2023-04-28T04:15:34.303Z,100625.91
2023-04-28T04:18:00.876Z,100623.66
2023-04-28T04:20:27.369Z,100619.44
2023-04-28T04:22:53.761Z,100611.53
2023-04-28T04:25:22.044Z,100608.13
2023-04-28T04:27:49.558Z,100606.03
2023-04-28T04:30:16.088Z,100612.03
2023-04-28T04:32:42.614Z,100610.53
2023-04-28T04:35:09.559Z,100614.63
2023-04-28T04:37:36.048Z,100612.75
2023-04-28T04:40:03.104Z,100608.94
2023-04-28T04:42:29.771Z,100606.00
2023-04-28T04:44:56.241Z,100613.31
2023-04-28T04:47:22.689Z,100604.63
2023-04-28T04:49:50.059Z,100615.50
2023-04-28T04:52:16.761Z,100623.41
2023-04-28T04:54:43.119Z,100615.56
2023-04-28T04:57:09.555Z,100607.41
2023-04-28T04:59:35.971Z,100612.84
2023-04-28T05:02:02.381Z,100607.09
2023-04-28T05:04:29.092Z,100607.66
2023-04-28T05:06:55.567Z,100621.03
2023-04-28T05:09:23.065Z,100624.59
2023-04-28T05:11:49.363Z,100620.00
2023-04-28T05:14:16.849Z,100627.03
2023-04-28T05:16:43.760Z,100631.09
2023-04-28T05:19:10.660Z,100631.34
2023-04-28T05:21:37.038Z,100628.69
2023-04-28T05:24:03.549Z,100635.19
2023-04-28T05:26:29.888Z,100623.00
2023-04-28T05:28:56.231Z,100627.88
2023-04-28T05:31:22.765Z,100624.69
2023-04-28T05:33:49.177Z,100613.03
2023-04-28T05:36:17.117Z,100594.63
2023-04-28T05:38:44.220Z,100612.25
2023-04-28T05:41:10.756Z,100617.25
2023-04-28T05:43:37.275Z,100608.56
2023-04-28T05:46:05.118Z,100612.16
2023-04-28T05:48:32.681Z,100603.94
2023-04-28T05:50:59.569Z,100603.72
2023-04-28T05:53:25.891Z,100607.81
2023-04-28T05:55:52.485Z,100607.22
2023-04-28T05:58:18.927Z,100608.81
2023-04-28T06:00:45.326Z,100613.75
2023-04-28T06:03:14.417Z,100609.38
2023-04-28T06:05:41.189Z,100596.25
2023-04-28T06:08:07.836Z,100590.50
2023-04-28T06:10:34.231Z,100596.25
2023-04-28T06:13:00.552Z,100592.78
2023-04-28T06:15:27.069Z,100592.03
2023-04-28T06:17:53.969Z,100595.88
2023-04-28T06:20:20.568Z,100588.50
2023-04-28T06:22:47.101Z,100581.47
2023-04-28T06:25:13.505Z,100592.69
2023-04-28T06:27:39.827Z,100597.00
2023-04-28T06:30:06.851Z,100590.44
2023-04-28T06:32:33.692Z,100586.13
2023-04-28T06:35:00.069Z,100596.50
2023-04-28T06:37:26.902Z,100593.59
2023-04-28T06:39:53.241Z,100594.94
2023-04-28T06:42:20.409Z,100595.44
2023-04-28T06:44:47.606Z,100592.78
2023-04-28T06:47:14.077Z,100592.78
2023-04-28T06:49:40.446Z,100594.47
2023-04-28T06:52:07.924Z,100595.81
2023-04-28T06:54:34.250Z,100595.56
2023-04-28T06:57:00.652Z,100594.50
2023-04-28T06:59:27.238Z,100601.00
2023-04-28T07:01:53.629Z,100596.09
2023-04-28T07:04:20.300Z,100586.94
2023-04-28T07:06:47.377Z,100587.50
2023-04-28T07:09:13.898Z,100597.31
2023-04-28T07:11:40.350Z,100601.16
2023-04-28T07:14:08.237Z,100602.78
2023-04-28T07:16:34.740Z,100604.72
2023-04-28T07:19:01.216Z,100598.97
2023-04-28T07:21:28.204Z,100602.25
2023-04-28T07:23:57.820Z,100606.94
2023-04-28T07:26:24.406Z,100613.50
2023-04-28T07:28:51.828Z,100612.41
2023-04-28T07:31:18.379Z,100611.06
2023-04-28T07:33:44.750Z,100605.63
2023-04-28T07:36:11.215Z,100607.53
2023-04-28T07:38:37.757Z,100607.28
2023-04-28T07:41:05.206Z,100606.72
2023-04-28T07:43:33.330Z,100606.16
2023-04-28T07:45:59.843Z,100603.13
2023-04-28T07:48:27.243Z,100600.16
2023-04-28T07:50:53.754Z,100602.91
2023-04-28T07:53:20.134Z,100603.50
2023-04-28T07:55:46.902Z,100604.56
2023-04-28T07:58:13.416Z,100602.69
2023-04-28T08:00:41.033Z,100599.72
2023-04-28T08:03:07.932Z,100588.06
2023-04-28T08:05:34.617Z,100596.53
2023-04-28T08:08:01.145Z,100603.13
2023-04-28T08:10:28.470Z,100604.78
2023-04-28T08:12:54.978Z,100597.13
2023-04-28T08:15:21.476Z,100600.44
2023-04-28T08:17:47.905Z,100609.69
2023-04-28T08:20:15.633Z,100600.41
2023-04-28T08:22:42.146Z,100593.34
2023-04-28T08:25:08.830Z,100592.75
2023-04-28T08:27:38.012Z,100588.94
2023-04-28T08:30:05.217Z,100593.84
2023-04-28T08:32:31.723Z,100595.75
2023-04-28T08:34:58.470Z,100598.75
2023-04-28T08:37:24.914Z,100603.13
2023-04-28T08:39:52.740Z,100602.59
2023-04-28T08:42:19.412Z,100589.22
2023-04-28T08:44:47.030Z,100589.22
2023-04-28T08:47:14.334Z,100587.03
2023-04-28T08:49:41.499Z,100586.19
2023-04-28T08:52:17.561Z,100594.66
2023-04-28T08:54:44.420Z,100590.00
2023-04-28T08:57:10.940Z,100589.44
2023-04-28T08:59:41.623Z,100603.66
2023-04-28T09:02:08.984Z,100602.56
2023-04-28T09:04:35.703Z,100611.88
2023-04-28T09:07:02.276Z,100604.75
2023-04-28T09:09:33.269Z,100606.94
2023-04-28T09:12:03.757Z,100607.47
2023-04-28T09:14:33.706Z,100595.44
2023-04-28T09:17:00.850Z,100596.53
2023-04-28T09:19:36.048Z,100592.09
2023-04-28T09:22:13.695Z,100597.00
2023-04-28T09:24:44.523Z,100606.03
2023-04-28T09:27:11.895Z,100604.09
2023-04-28T09:29:38.987Z,100604.94
2023-04-28T09:32:19.271Z,100599.75
2023-04-28T09:34:51.218Z,100600.88
2023-04-28T09:37:20.788Z,100601.72
2023-04-28T09:39:50.669Z,100601.47
2023-04-28T09:42:43.083Z,100597.63
2023-04-28T09:45:14.271Z,100586.16
2023-04-28T09:47:42.904Z,100593.53
2023-04-28T09:50:14.446Z,100598.75
2023-04-28T09:52:42.578Z,100598.50
2023-04-28T09:55:09.436Z,100585.66
2023-04-28T09:57:36.826Z,100596.06
2023-04-28T10:00:06.477Z,100596.31
2023-04-28T10:02:42.799Z,100580.72
2023-04-28T10:05:11.019Z,100581.81
2023-04-28T10:07:38.945Z,100582.66
2023-04-28T10:10:07.091Z,100588.91
2023-04-28T10:12:34.926Z,100602.03
2023-04-28T10:15:02.115Z,100592.19
2023-04-28T10:17:29.769Z,100591.38
2023-04-28T10:19:57.141Z,100585.09
2023-04-28T10:22:56.007Z,100587.00
2023-04-28T10:25:27.822Z,100586.72
2023-04-28T10:27:54.641Z,100584.28
2023-04-28T10:30:28.267Z,100582.09
2023-04-28T10:33:14.097Z,100584.53
2023-04-28T10:35:45.869Z,100581.25
2023-04-28T10:38:14.719Z,100587.25
2023-04-28T10:40:49.070Z,100572.72
2023-04-28T10:43:31.149Z,100581.19
2023-04-28T10:46:00.072Z,100572.44
2023-04-28T10:48:26.426Z,100571.63
2023-04-28T10:51:09.659Z,100570.78
2023-04-28T10:53:45.384Z,100565.91
2023-04-28T10:56:24.915Z,100574.06
2023-04-28T10:58:52.187Z,100580.59
2023-04-28T11:01:18.763Z,100578.09
2023-04-28T11:03:52.041Z,100575.88
2023-04-28T11:06:34.390Z,100568.34
2023-04-28T11:09:24.140Z,100566.66
2023-04-28T11:12:06.715Z,100561.66
2023-04-28T11:14:35.299Z,100566.56
2023-04-28T11:17:06.562Z,100564.91
2023-04-28T11:19:38.244Z,100558.56
2023-04-28T11:22:11.712Z,100549.47
2023-04-28T11:24:38.329Z,100554.34
2023-04-28T11:27:04.796Z,100553.44
2023-04-28T11:29:38.841Z,100544.91
2023-04-28T11:32:07.705Z,100542.63
2023-04-28T11:34:34.944Z,100542.78
2023-04-28T11:37:01.495Z,100544.56
2023-04-28T11:39:29.852Z,100547.28
2023-04-28T11:41:58.105Z,100536.09
2023-04-28T11:44:27.410Z,100536.81
2023-04-28T11:47:03.337Z,100538.97
2023-04-28T11:49:31.604Z,100531.72
2023-04-28T11:52:00.341Z,100531.19
2023-04-28T11:54:29.152Z,100525.31
2023-04-28T11:56:57.296Z,100527.09
2023-04-28T11:59:29.245Z,100523.47
2023-04-28T12:01:59.294Z,100530.22
2023-04-28T12:04:48.588Z,100531.28
2023-04-28T12:07:16.500Z,100529.25
2023-04-28T12:10:06.669Z,100531.63
2023-04-28T12:15:05.316Z,100537.81
2023-04-28T12:17:39.842Z,100527.63
2023-04-28T12:20:11.705Z,100521.88
2023-04-28T12:22:51.037Z,100519.75
2023-04-28T12:25:19.417Z,100517.50
2023-04-28T12:28:02.153Z,100511.69
2023-04-28T12:30:30.841Z,100517.00
2023-04-28T12:32:57.591Z,100512.22
2023-04-28T12:35:25.531Z,100514.06
2023-04-28T12:37:53.700Z,100513.66
2023-04-28T12:40:20.108Z,100508.38
2023-04-28T12:42:46.705Z,100510.50
2023-04-28T12:45:13.235Z,100506.53
2023-04-28T12:47:40.629Z,100508.75
2023-04-28T12:50:07.780Z,100504.88
2023-04-28T12:52:35.704Z,100499.34
2023-04-28T12:55:02.980Z,100498.69
2023-04-28T12:57:29.538Z,100497.72
2023-04-28T12:59:57.110Z,100486.22
2023-04-28T13:02:24.140Z,100486.34
2023-04-28T13:04:52.069Z,100484.06
2023-04-28T13:07:19.173Z,100482.34
2023-04-28T13:09:47.322Z,100482.72
2023-04-28T13:12:14.625Z,100483.00
2023-04-28T13:14:41.149Z,100470.63
2023-04-28T13:17:08.163Z,100479.78
2023-04-28T13:19:35.112Z,100465.59
2023-04-28T13:22:04.983Z,100473.56
2023-04-28T13:24:33.430Z,100475.66
2023-04-28T13:27:00.249Z,100469.06
2023-04-28T13:29:26.576Z,100467.56
2023-04-28T13:31:53.117Z,100461.25
2023-04-28T13:34:19.556Z,100467.84
2023-04-28T13:36:47.952Z,100469.31
2023-04-28T13:39:14.927Z,100475.09
2023-04-28T13:41:41.620Z,100482.66
2023-04-28T13:44:09.373Z,100466.00
2023-04-28T13:46:35.974Z,100466.94
2023-04-28T13:49:02.433Z,100452.41
2023-04-28T13:51:28.877Z,100456.72
2023-04-28T13:53:55.345Z,100448.97
2023-04-28T13:56:21.866Z,100448.59
2023-04-28T13:58:48.315Z,100440.22
2023-04-28T14:01:14.970Z,100438.94
2023-04-28T14:03:42.053Z,100436.16
2023-04-28T14:06:08.500Z,100433.41
2023-04-28T14:08:35.024Z,100436.16
2023-04-28T14:11:01.601Z,100431.13
2023-04-28T14:13:27.974Z,100425.88
2023-04-28T14:15:59.283Z,100427.06
2023-04-28T14:18:26.371Z,100418.09
2023-04-28T14:20:54.503Z,100427.66
2023-04-28T14:23:22.582Z,100410.88
2023-04-28T14:25:49.174Z,100413.06
2023-04-28T14:28:16.190Z,100422.53
2023-04-28T14:30:42.881Z,100426.91
2023-04-28T14:33:09.336Z,100426.28
2023-04-28T14:35:35.800Z,100431.94
2023-04-28T14:38:03.479Z,100426.72
2023-04-28T14:40:29.824Z,100422.81
2023-04-28T14:42:56.450Z,100408.88
2023-04-28T14:45:23.133Z,100420.03
2023-04-28T14:47:49.729Z,100408.72
2023-04-28T14:50:16.763Z,100414.94
2023-04-28T14:52:43.134Z,100414.97
2023-04-28T14:55:10.171Z,100400.88
2023-04-28T14:57:37.729Z,100404.97
2023-04-28T15:00:07.071Z,100408.88
2023-04-28T15:02:34.346Z,100399.28
2023-04-28T15:05:01.408Z,100398.47
2023-04-28T15:07:31.215Z,100410.94
2023-04-28T15:09:59.348Z,100401.16
2023-04-28T15:12:26.017Z,100414.25
2023-04-28T15:14:53.705Z,100419.09
2023-04-28T15:17:21.284Z,100418.09
2023-04-28T15:19:47.782Z,100424.13
2023-04-28T15:22:14.229Z,100422.66
2023-04-28T15:24:40.659Z,100425.13
2023-04-28T15:27:07.054Z,100416.53
2023-04-28T15:29:33.461Z,100436.84
2023-04-28T15:31:59.961Z,100435.22
2023-04-28T15:34:26.456Z,100437.63
2023-04-28T15:36:53.764Z,100443.66
2023-04-28T15:39:20.228Z,100443.63
2023-04-28T15:41:47.108Z,100447.56
2023-04-28T15:44:13.689Z,100458.41
2023-04-28T15:46:40.312Z,100466.22
2023-04-28T15:49:06.737Z,100469.28
2023-04-28T15:51:33.289Z,100483.72
2023-04-28T15:54:00.287Z,100475.28
2023-04-28T15:56:26.732Z,100484.97
2023-04-28T15:58:53.347Z,100487.53
2023-04-28T16:01:21.004Z,100501.53
2023-04-28T16:03:48.439Z,100501.03
2023-04-28T16:06:14.972Z,100508.81
2023-04-28T16:08:41.275Z,100497.97
2023-04-28T16:11:08.242Z,100517.94
2023-04-28T16:13:37.030Z,100527.00
2023-04-28T16:16:04.136Z,100535.28
2023-04-28T16:18:31.937Z,100533.75
2023-04-28T16:20:58.246Z,100543.56
2023-04-28T16:23:24.606Z,100539.81
2023-04-28T16:25:51.566Z,100563.06
2023-04-28T16:28:17.987Z,100564.56
2023-04-28T16:30:44.535Z,100567.66
2023-04-28T16:33:11.238Z,100576.94
2023-04-28T16:35:37.693Z,100577.91
2023-04-28T16:38:04.027Z,100584.84
2023-04-28T16:40:30.706Z,100582.63
2023-04-28T16:42:57.339Z,100577.75
2023-04-28T16:45:23.752Z,100583.44
2023-04-28T16:47:50.218Z,100579.06
2023-04-28T16:50:17.273Z,100581.66
2023-04-28T16:52:43.714Z,100594.25
2023-04-28T16:55:10.931Z,100598.41
2023-04-28T16:57:37.495Z,100593.81
2023-04-28T17:00:06.099Z,100599.91
2023-04-28T17:02:33.388Z,100602.94
2023-04-28T17:05:00.259Z,100595.13
2023-04-28T17:07:26.759Z,100603.66
2023-04-28T17:09:53.503Z,100605.38
2023-04-28T17:12:20.970Z,100614.47
2023-04-28T17:14:47.646Z,100610.50
2023-04-28T17:17:14.113Z,100609.06
2023-04-28T17:19:41.589Z,100620.28
2023-04-28T17:22:08.272Z,100616.78
2023-04-28T17:24:35.084Z,100627.56
2023-04-28T17:27:01.719Z,100625.09
2023-04-28T17:29:29.070Z,100629.53
2023-04-28T17:31:55.668Z,100640.09
2023-04-28T17:34:22.157Z,100625.44
2023-04-28T17:36:48.627Z,100627.75
2023-04-28T17:39:16.580Z,100639.25
2023-04-28T17:41:43.693Z,100635.16
2023-04-28T17:44:10.063Z,100636.84
2023-04-28T17:46:38.434Z,100636.84
2023-04-28T17:49:05.445Z,100640.94
2023-04-28T17:51:32.334Z,100645.84
2023-04-28T17:53:59.305Z,100651.56
2023-04-28T17:56:26.383Z,100657.28
2023-04-28T17:58:52.874Z,100652.59
2023-04-28T18:01:19.587Z,100656.81
2023-04-28T18:03:46.457Z,100648.66
2023-04-28T18:06:13.721Z,100654.03
2023-04-28T18:08:40.911Z,100649.94
2023-04-28T18:11:09.111Z,100657.31
2023-04-28T18:13:35.668Z,100662.84
2023-04-28T18:16:04.396Z,100662.88
2023-04-28T18:18:34.780Z,100665.72
2023-04-28T18:21:02.228Z,100671.19
2023-04-28T18:23:30.205Z,100669.22
2023-04-28T18:25:56.983Z,100675.03
2023-04-28T18:28:23.575Z,100673.34
2023-04-28T18:30:50.279Z,100676.69
2023-04-28T18:33:23.116Z,100685.28
2023-04-28T18:36:06.191Z,100682.28
2023-04-28T18:38:35.085Z,100683.38
2023-04-28T18:41:11.117Z,100680.63
2023-04-28T18:43:37.770Z,100680.63
2023-04-28T18:46:06.200Z,100686.38
2023-04-28T18:48:33.992Z,100692.47
2023-04-28T18:51:01.599Z,100685.06
2023-04-28T18:53:30.617Z,100690.03
2023-04-28T18:55:58.092Z,100691.41
2023-04-28T18:58:25.125Z,100696.09
2023-04-28T19:00:52.490Z,100696.66
2023-04-28T19:03:19.106Z,100701.59
2023-04-28T19:05:46.197Z,100698.78
2023-04-28T19:08:12.994Z,100698.84
2023-04-28T19:10:39.449Z,100694.97
2023-04-28T19:13:05.820Z,100697.25
2023-04-28T19:15:32.978Z,100701.09
2023-04-28T19:17:59.577Z,100703.88
2023-04-28T19:20:26.090Z,100706.66
2023-04-28T19:22:52.675Z,100702.59
2023-04-28T19:25:19.197Z,100703.63
2023-04-28T19:27:45.657Z,100712.69
2023-04-28T19:30:14.831Z,100710.81
2023-04-28T19:32:42.376Z,100713.81
2023-04-28T19:35:09.467Z,100719.59
2023-04-28T19:37:36.249Z,100720.38
2023-04-28T19:40:07.277Z,100721.44
2023-04-28T19:42:35.022Z,100723.66
2023-04-28T19:45:01.944Z,100731.97
2023-04-28T19:47:31.451Z,100727.09
2023-04-28T19:49:57.872Z,100732.25
2023-04-28T19:52:24.308Z,100728.09
2023-04-28T19:54:51.767Z,100730.81
2023-04-28T19:57:19.196Z,100726.38
2023-04-28T19:59:49.506Z,100733.72
2023-04-28T20:02:16.795Z,100731.84
2023-04-28T20:04:43.464Z,100732.34
2023-04-28T20:07:10.727Z,100735.38
2023-04-28T20:09:37.980Z,100740.06
2023-04-28T20:12:05.955Z,100737.34
2023-04-28T20:14:33.031Z,100742.00
2023-04-28T20:17:01.032Z,100735.69
2023-04-28T20:19:27.743Z,100734.06
2023-04-28T20:21:54.426Z,100742.28
2023-04-28T20:24:20.920Z,100732.66
2023-04-28T20:26:49.306Z,100728.03
2023-04-28T20:29:16.038Z,100730.28
2023-04-28T20:31:42.647Z,100729.78
2023-04-28T20:34:09.034Z,100739.38
2023-04-28T20:36:35.438Z,100736.38
2023-04-28T20:39:03.052Z,100742.91
2023-04-28T20:41:29.441Z,100735.22
2023-04-28T20:43:55.775Z,100736.38
2023-04-28T20:46:22.522Z,100730.88
2023-04-28T20:48:49.223Z,100736.63
2023-04-28T20:51:16.714Z,100740.19
2023-04-28T20:53:43.284Z,100732.25
2023-04-28T20:56:09.702Z,100744.06
2023-04-28T20:58:36.132Z,100739.72
2023-04-28T21:01:02.626Z,100750.44
2023-04-28T21:03:30.505Z,100740.84
2023-04-28T21:05:57.024Z,100742.03
2023-04-28T21:08:23.517Z,100742.84
2023-04-28T21:10:50.000Z,100739.34
2023-04-28T21:13:16.407Z,100749.53
2023-04-28T21:15:43.033Z,100752.53
2023-04-28T21:18:09.571Z,100750.38
2023-04-28T21:20:36.053Z,100752.06
2023-04-28T21:23:02.823Z,100750.13
2023-04-28T21:25:29.287Z,100748.47
2023-04-28T21:27:55.734Z,100750.94
2023-04-28T21:30:22.561Z,100752.28
2023-04-28T21:32:48.984Z,100756.41
2023-04-28T21:35:16.245Z,100755.59
2023-04-28T21:37:42.743Z,100760.28
2023-04-28T21:40:09.724Z,100759.47
2023-04-28T21:42:36.190Z,100759.75
2023-04-28T21:45:02.709Z,100752.38
2023-04-28T21:47:29.718Z,100754.56
2023-04-28T21:49:56.129Z,100755.94
2023-04-28T21:52:22.597Z,100764.72
2023-04-28T21:54:49.026Z,100765.84
2023-04-28T21:57:15.780Z,100770.00
2023-04-28T21:59:42.402Z,100757.97
2023-04-28T22:02:09.064Z,100770.84
2023-04-28T22:04:35.973Z,100770.84
2023-04-28T22:07:02.655Z,100760.72
2023-04-28T22:09:29.079Z,100765.38
2023-04-28T22:11:55.495Z,100766.78
2023-04-28T22:14:39.364Z,100764.59
2023-04-28T22:17:07.442Z,100768.97
2023-04-28T22:19:34.128Z,100767.59
2023-04-28T22:22:00.621Z,100773.59
2023-04-28T22:24:27.742Z,100764.06
2023-04-28T22:26:55.043Z,100769.53
2023-04-28T22:29:21.880Z,100770.34
2023-04-28T22:31:48.476Z,100780.19
2023-04-28T22:34:15.057Z,100770.63
2023-04-28T22:36:41.480Z,100775.28
2023-04-28T22:39:08.196Z,100773.66
2023-04-28T22:41:34.665Z,100768.44
2023-04-28T22:44:01.003Z,100769.25
2023-04-28T22:46:28.639Z,100775.81
2023-04-28T22:48:55.240Z,100772.53
2023-04-28T22:51:21.913Z,100778.53
2023-04-28T22:53:48.553Z,100774.72
2023-04-28T22:56:15.855Z,100772.53
2023-04-28T22:58:42.383Z,100774.72
2023-04-28T23:01:09.035Z,100772.25
2023-04-28T23:03:35.629Z,100776.34
2023-04-28T23:06:02.108Z,100779.38
2023-04-28T23:08:28.463Z,100780.19
2023-04-28T23:10:57.028Z,100780.75
2023-04-28T23:13:23.445Z,100790.59
2023-04-28T23:15:49.873Z,100779.09
2023-04-28T23:18:16.336Z,100767.06
2023-04-28T23:20:42.678Z,100770.31
2023-04-28T23:23:08.975Z,100780.16
2023-04-28T23:25:35.883Z,100787.25
2023-04-28T23:28:02.246Z,100785.63
2023-04-28T23:30:28.625Z,100792.16
2023-04-28T23:32:55.163Z,100786.69
2023-04-28T23:35:21.605Z,100805.78
2023-04-28T23:37:47.927Z,100805.25
2023-04-28T23:40:14.531Z,100801.66
2023-04-28T23:42:41.128Z,100806.84
2023-04-28T23:45:08.939Z,100811.72
2023-04-28T23:47:35.627Z,100819.63
2023-04-28T23:50:02.086Z,100819.38
2023-04-28T23:52:28.439Z,100826.16
2023-04-28T23:54:54.920Z,100814.97
2023-04-28T23:57:21.318Z,100820.66
2023-04-28T23:59:47.977Z,100814.91
